sensor_id;sensor_type;location;lat;lon;timestamp;pressure;altitude;pressure_sealevel;temperature;humidity
17311;BME280;8773;43.300;0.394;2023-05-23T00:00:10;99797.28;;;17.35;70.50
17311;BME280;8773;43.300;0.394;2023-05-23T00:02:37;99804.34;;;17.36;70.43
17311;BME280;8773;43.300;0.394;2023-05-23T00:05:07;99799.00;;;17.43;70.14
17311;BME280;8773;43.300;0.394;2023-05-23T00:07:34;99794.41;;;17.37;70.44
17311;BME280;8773;43.300;0.394;2023-05-23T00:10:02;99797.28;;;17.35;70.43
17311;BME280;8773;43.300;0.394;2023-05-23T00:12:30;99799.41;;;17.40;70.51
17311;BME280;8773;43.300;0.394;2023-05-23T00:14:57;99804.44;;;17.50;70.00
17311;BME280;8773;43.300;0.394;2023-05-23T00:17:25;99801.84;;;17.35;70.64
17311;BME280;8773;43.300;0.394;2023-05-23T00:19:52;99802.97;;;17.19;71.02
17311;BME280;8773;43.300;0.394;2023-05-23T00:22:21;99788.31;;;17.28;70.84
17311;BME280;8773;43.300;0.394;2023-05-23T00:24:48;99797.63;;;17.26;71.17
17311;BME280;8773;43.300;0.394;2023-05-23T00:27:16;99789.88;;;17.44;70.71
17311;BME280;8773;43.300;0.394;2023-05-23T00:29:43;99784.50;;;17.51;70.31
17311;BME280;8773;43.300;0.394;2023-05-23T00:32:10;99776.69;;;17.62;70.01
17311;BME280;8773;43.300;0.394;2023-05-23T00:34:38;99775.84;;;17.62;69.92
17311;BME280;8773;43.300;0.394;2023-05-23T00:37:05;99767.47;;;17.50;70.35
17311;BME280;8773;43.300;0.394;2023-05-23T00:39:34;99755.69;;;17.58;70.21
17311;BME280;8773;43.300;0.394;2023-05-23T00:42:03;99762.50;;;17.54;69.89
17311;BME280;8773;43.300;0.394;2023-05-23T00:44:31;99761.25;;;17.50;70.27
17311;BME280;8773;43.300;0.394;2023-05-23T00:46:59;99762.09;;;17.50;70.22
17311;BME280;8773;43.300;0.394;2023-05-23T00:49:26;99764.47;;;17.32;70.50
17311;BME280;8773;43.300;0.394;2023-05-23T00:51:54;99765.97;;;17.41;70.67
17311;BME280;8773;43.300;0.394;2023-05-23T00:54:24;99763.31;;;17.48;70.40
17311;BME280;8773;43.300;0.394;2023-05-23T00:56:53;99758.31;;;17.45;70.57
17311;BME280;8773;43.300;0.394;2023-05-23T00:59:22;99748.31;;;17.38;70.64
17311;BME280;8773;43.300;0.394;2023-05-23T01:01:51;99751.59;;;17.34;71.33
17311;BME280;8773;43.300;0.394;2023-05-23T01:04:21;99745.34;;;17.27;71.52
17311;BME280;8773;43.300;0.394;2023-05-23T01:06:48;99750.09;;;17.25;71.73
17311;BME280;8773;43.300;0.394;2023-05-23T01:09:16;99758.97;;;17.19;71.75
17311;BME280;8773;43.300;0.394;2023-05-23T01:11:52;99749.09;;;17.32;71.81
17311;BME280;8773;43.300;0.394;2023-05-23T01:14:29;99750.28;;;17.23;71.73
17311;BME280;8773;43.300;0.394;2023-05-23T01:17:03;99746.16;;;17.27;72.02
17311;BME280;8773;43.300;0.394;2023-05-23T01:19:56;99746.75;;;17.23;72.17
17311;BME280;8773;43.300;0.394;2023-05-23T01:22:35;99745.72;;;17.24;72.00
17311;BME280;8773;43.300;0.394;2023-05-23T01:25:10;99750.19;;;17.38;71.72
17311;BME280;8773;43.300;0.394;2023-05-23T01:27:47;99752.63;;;17.33;71.84
17311;BME280;8773;43.300;0.394;2023-05-23T01:30:18;99760.97;;;17.38;71.77
17311;BME280;8773;43.300;0.394;2023-05-23T01:32:52;99755.81;;;17.43;71.59
17311;BME280;8773;43.300;0.394;2023-05-23T01:35:23;99762.47;;;17.47;71.42
17311;BME280;8773;43.300;0.394;2023-05-23T01:37:51;99764.16;;;17.48;71.33
17311;BME280;8773;43.300;0.394;2023-05-23T01:40:19;99763.63;;;17.31;71.76
17311;BME280;8773;43.300;0.394;2023-05-23T01:42:48;99756.16;;;17.33;71.60
17311;BME280;8773;43.300;0.394;2023-05-23T01:45:16;99752.47;;;17.41;71.60
17311;BME280;8773;43.300;0.394;2023-05-23T01:47:45;99745.22;;;17.42;71.45
17311;BME280;8773;43.300;0.394;2023-05-23T01:50:22;99757.09;;;17.47;71.28
17311;BME280;8773;43.300;0.394;2023-05-23T01:52:50;99749.19;;;17.46;71.36
17311;BME280;8773;43.300;0.394;2023-05-23T01:55:18;99748.34;;;17.45;71.20
17311;BME280;8773;43.300;0.394;2023-05-23T01:57:49;99752.31;;;17.49;71.32
17311;BME280;8773;43.300;0.394;2023-05-23T02:00:17;99760.41;;;17.49;71.24
17311;BME280;8773;43.300;0.394;2023-05-23T02:02:45;99763.22;;;17.34;71.65
17311;BME280;8773;43.300;0.394;2023-05-23T02:05:12;99751.41;;;17.35;71.83
17311;BME280;8773;43.300;0.394;2023-05-23T02:07:40;99750.84;;;17.47;71.40
17311;BME280;8773;43.300;0.394;2023-05-23T02:10:08;99745.38;;;17.33;71.73
17311;BME280;8773;43.300;0.394;2023-05-23T02:12:35;99748.28;;;17.32;71.94
17311;BME280;8773;43.300;0.394;2023-05-23T02:15:05;99744.38;;;17.41;71.54
17311;BME280;8773;43.300;0.394;2023-05-23T02:17:33;99748.16;;;17.47;71.46
17311;BME280;8773;43.300;0.394;2023-05-23T02:20:00;99744.34;;;17.34;71.77
17311;BME280;8773;43.300;0.394;2023-05-23T02:22:28;99742.50;;;17.42;71.70
17311;BME280;8773;43.300;0.394;2023-05-23T02:24:55;99750.81;;;17.40;71.49
17311;BME280;8773;43.300;0.394;2023-05-23T02:27:22;99754.59;;;17.46;71.53
17311;BME280;8773;43.300;0.394;2023-05-23T02:29:50;99751.25;;;17.44;71.38
17311;BME280;8773;43.300;0.394;2023-05-23T02:32:19;99750.78;;;17.33;71.90
17311;BME280;8773;43.300;0.394;2023-05-23T02:34:46;99750.78;;;17.33;71.94
17311;BME280;8773;43.300;0.394;2023-05-23T02:37:13;99747.84;;;17.28;72.07
17311;BME280;8773;43.300;0.394;2023-05-23T02:39:41;99746.88;;;17.43;71.76
17311;BME280;8773;43.300;0.394;2023-05-23T02:42:09;99744.38;;;17.41;71.77
17311;BME280;8773;43.300;0.394;2023-05-23T02:44:38;99745.19;;;17.35;71.94
17311;BME280;8773;43.300;0.394;2023-05-23T02:47:06;99746.59;;;17.31;72.12
17311;BME280;8773;43.300;0.394;2023-05-23T02:49:35;99740.81;;;17.34;71.92
17311;BME280;8773;43.300;0.394;2023-05-23T02:52:02;99738.75;;;17.36;71.96
17311;BME280;8773;43.300;0.394;2023-05-23T02:54:32;99743.66;;;17.26;72.26
17311;BME280;8773;43.300;0.394;2023-05-23T02:57:00;99735.38;;;17.27;72.18
17311;BME280;8773;43.300;0.394;2023-05-23T02:59:27;99742.84;;;17.25;72.27
17311;BME280;8773;43.300;0.394;2023-05-23T03:01:55;99740.34;;;17.24;72.70
17311;BME280;8773;43.300;0.394;2023-05-23T03:04:22;99739.09;;;16.92;73.63
17311;BME280;8773;43.300;0.394;2023-05-23T03:06:51;99739.69;;;16.87;74.22
17311;BME280;8773;43.300;0.394;2023-05-23T03:09:19;99747.13;;;16.85;74.26
17311;BME280;8773;43.300;0.394;2023-05-23T03:11:46;99741.56;;;16.87;74.15
17311;BME280;8773;43.300;0.394;2023-05-23T03:14:13;99745.19;;;17.00;73.59
17311;BME280;8773;43.300;0.394;2023-05-23T03:16:41;99747.25;;;16.98;73.86
17311;BME280;8773;43.300;0.394;2023-05-23T03:19:09;99739.88;;;17.14;73.34
17311;BME280;8773;43.300;0.394;2023-05-23T03:21:36;99740.13;;;17.25;73.04
17311;BME280;8773;43.300;0.394;2023-05-23T03:24:05;99751.50;;;17.14;73.34
17311;BME280;8773;43.300;0.394;2023-05-23T03:26:37;99746.53;;;17.18;72.76
17311;BME280;8773;43.300;0.394;2023-05-23T03:29:05;99746.50;;;17.11;72.70
17311;BME280;8773;43.300;0.394;2023-05-23T03:31:32;99748.66;;;16.94;73.72
17311;BME280;8773;43.300;0.394;2023-05-23T03:34:00;99745.09;;;16.87;73.70
17311;BME280;8773;43.300;0.394;2023-05-23T03:36:27;99734.53;;;16.92;73.65
17311;BME280;8773;43.300;0.394;2023-05-23T03:38:54;99736.69;;;17.03;73.10
17311;BME280;8773;43.300;0.394;2023-05-23T03:41:23;99731.91;;;16.99;73.52
17311;BME280;8773;43.300;0.394;2023-05-23T03:43:51;99729.88;;;17.08;73.09
17311;BME280;8773;43.300;0.394;2023-05-23T03:46:19;99726.16;;;17.09;72.98
17311;BME280;8773;43.300;0.394;2023-05-23T03:48:47;99731.91;;;16.99;73.08
17311;BME280;8773;43.300;0.394;2023-05-23T03:51:14;99738.13;;;16.99;73.21
17311;BME280;8773;43.300;0.394;2023-05-23T03:53:42;99734.88;;;17.11;72.64
17311;BME280;8773;43.300;0.394;2023-05-23T03:56:09;99746.53;;;17.18;72.72
17311;BME280;8773;43.300;0.394;2023-05-23T03:58:38;99745.34;;;17.27;72.59
17311;BME280;8773;43.300;0.394;2023-05-23T04:01:05;99749.06;;;17.26;72.18
17311;BME280;8773;43.300;0.394;2023-05-23T04:03:33;99761.16;;;17.36;72.24
17311;BME280;8773;43.300;0.394;2023-05-23T04:06:00;99750.38;;;17.36;72.09
17311;BME280;8773;43.300;0.394;2023-05-23T04:08:28;99748.91;;;17.34;71.74
17311;BME280;8773;43.300;0.394;2023-05-23T04:10:58;99745.19;;;17.35;72.02
17311;BME280;8773;43.300;0.394;2023-05-23T04:13:26;99747.88;;;17.35;71.67
17311;BME280;8773;43.300;0.394;2023-05-23T04:15:55;99745.19;;;17.35;71.68
17311;BME280;8773;43.300;0.394;2023-05-23T04:18:22;99745.81;;;17.37;71.76
17311;BME280;8773;43.300;0.394;2023-05-23T04:20:50;99740.41;;;17.37;71.84
17311;BME280;8773;43.300;0.394;2023-05-23T04:23:17;99743.34;;;17.42;71.39
17311;BME280;8773;43.300;0.394;2023-05-23T04:25:45;99741.28;;;17.44;71.35
17311;BME280;8773;43.300;0.394;2023-05-23T04:28:12;99748.75;;;17.42;71.37
17311;BME280;8773;43.300;0.394;2023-05-23T04:30:39;99753.75;;;17.45;71.17
17311;BME280;8773;43.300;0.394;2023-05-23T04:33:08;99742.44;;;17.28;72.05
17311;BME280;8773;43.300;0.394;2023-05-23T04:35:36;99749.16;;;17.39;71.55
17311;BME280;8773;43.300;0.394;2023-05-23T04:38:03;99748.75;;;17.42;71.54
17311;BME280;8773;43.300;0.394;2023-05-23T04:40:31;99755.41;;;17.46;71.29
17311;BME280;8773;43.300;0.394;2023-05-23T04:42:58;99745.44;;;17.47;71.31
17311;BME280;8773;43.300;0.394;2023-05-23T04:45:26;99752.47;;;17.41;71.52
17311;BME280;8773;43.300;0.394;2023-05-23T04:47:53;99743.75;;;17.39;71.68
17311;BME280;8773;43.300;0.394;2023-05-23T04:50:22;99757.44;;;17.37;71.61
17311;BME280;8773;43.300;0.394;2023-05-23T04:52:50;99760.28;;;17.29;71.77
17311;BME280;8773;43.300;0.394;2023-05-23T04:55:17;99761.97;;;17.30;71.90
17311;BME280;8773;43.300;0.394;2023-05-23T04:57:45;99768.25;;;17.37;71.72
17311;BME280;8773;43.300;0.394;2023-05-23T05:00:13;99766.97;;;17.33;71.70
17311;BME280;8773;43.300;0.394;2023-05-23T05:02:40;99774.00;;;17.28;71.59
17311;BME280;8773;43.300;0.394;2023-05-23T05:05:08;99776.25;;;17.24;71.83
17311;BME280;8773;43.300;0.394;2023-05-23T05:07:37;99770.81;;;17.18;72.16
17311;BME280;8773;43.300;0.394;2023-05-23T05:10:09;99771.69;;;17.25;72.26
17311;BME280;8773;43.300;0.394;2023-05-23T05:12:36;99770.19;;;17.16;72.39
17311;BME280;8773;43.300;0.394;2023-05-23T05:15:04;99768.53;;;17.15;72.23
17311;BME280;8773;43.300;0.394;2023-05-23T05:17:32;99774.97;;;17.20;72.00
17311;BME280;8773;43.300;0.394;2023-05-23T05:20:06;99778.16;;;17.30;71.83
17311;BME280;8773;43.300;0.394;2023-05-23T05:22:34;99775.50;;;17.37;71.64
17311;BME280;8773;43.300;0.394;2023-05-23T05:25:03;99772.81;;;17.37;71.70
17311;BME280;8773;43.300;0.394;2023-05-23T05:27:31;99774.03;;;17.34;71.55
17311;BME280;8773;43.300;0.394;2023-05-23T05:29:58;99776.50;;;17.29;71.63
17311;BME280;8773;43.300;0.394;2023-05-23T05:32:42;99772.38;;;17.33;71.56
17311;BME280;8773;43.300;0.394;2023-05-23T05:35:36;99770.34;;;17.42;71.10
17311;BME280;8773;43.300;0.394;2023-05-23T05:38:09;99777.25;;;17.51;71.03
17311;BME280;8773;43.300;0.394;2023-05-23T05:40:44;99768.34;;;17.57;70.67
17311;BME280;8773;43.300;0.394;2023-05-23T05:43:23;99766.28;;;17.59;70.41
17311;BME280;8773;43.300;0.394;2023-05-23T05:45:50;99773.91;;;17.49;70.66
17311;BME280;8773;43.300;0.394;2023-05-23T05:48:27;99778.88;;;17.46;71.11
17311;BME280;8773;43.300;0.394;2023-05-23T05:50:54;99774.53;;;17.51;70.62
17311;BME280;8773;43.300;0.394;2023-05-23T05:53:22;99771.88;;;17.58;70.65
17311;BME280;8773;43.300;0.394;2023-05-23T05:55:50;99774.97;;;17.55;70.36
17311;BME280;8773;43.300;0.394;2023-05-23T05:58:18;99778.53;;;17.55;70.34
17311;BME280;8773;43.300;0.394;2023-05-23T06:00:46;99774.41;;;17.66;69.89
17311;BME280;8773;43.300;0.394;2023-05-23T06:03:14;99788.34;;;17.69;69.74
17311;BME280;8773;43.300;0.394;2023-05-23T06:05:42;99798.13;;;17.70;69.71
17311;BME280;8773;43.300;0.394;2023-05-23T06:08:09;99801.06;;;17.76;69.46
17311;BME280;8773;43.300;0.394;2023-05-23T06:10:37;99789.06;;;17.85;69.18
17311;BME280;8773;43.300;0.394;2023-05-23T06:13:06;99786.38;;;17.91;68.99
17311;BME280;8773;43.300;0.394;2023-05-23T06:15:33;99799.53;;;18.01;68.67
17311;BME280;8773;43.300;0.394;2023-05-23T06:18:01;99789.31;;;18.03;68.33
17311;BME280;8773;43.300;0.394;2023-05-23T06:20:28;99784.16;;;18.15;67.91
17311;BME280;8773;43.300;0.394;2023-05-23T06:22:56;99792.88;;;18.10;68.21
17311;BME280;8773;43.300;0.394;2023-05-23T06:25:23;99789.75;;;18.13;68.20
17311;BME280;8773;43.300;0.394;2023-05-23T06:27:51;99793.06;;;18.02;68.03
17311;BME280;8773;43.300;0.394;2023-05-23T06:30:20;99790.78;;;18.12;67.88
17311;BME280;8773;43.300;0.394;2023-05-23T06:32:47;99789.53;;;18.08;68.14
17311;BME280;8773;43.300;0.394;2023-05-23T06:35:15;99791.41;;;18.01;67.76
17311;BME280;8773;43.300;0.394;2023-05-23T06:37:42;99794.13;;;18.01;67.98
17311;BME280;8773;43.300;0.394;2023-05-23T06:40:10;99800.69;;;17.85;68.44
17311;BME280;8773;43.300;0.394;2023-05-23T06:42:38;99797.13;;;17.78;68.69
17311;BME280;8773;43.300;0.394;2023-05-23T06:45:07;99801.69;;;17.78;68.68
17311;BME280;8773;43.300;0.394;2023-05-23T06:47:35;99805.72;;;17.54;69.56
17311;BME280;8773;43.300;0.394;2023-05-23T06:50:04;99808.50;;;17.67;69.25
17311;BME280;8773;43.300;0.394;2023-05-23T06:52:31;99816.31;;;17.55;69.44
17311;BME280;8773;43.300;0.394;2023-05-23T06:54:59;99809.78;;;17.78;69.02
17311;BME280;8773;43.300;0.394;2023-05-23T06:57:26;99807.81;;;17.58;69.63
17311;BME280;8773;43.300;0.394;2023-05-23T06:59:54;99798.72;;;17.66;69.30
17311;BME280;8773;43.300;0.394;2023-05-23T07:02:21;99802.91;;;17.68;69.17
17311;BME280;8773;43.300;0.394;2023-05-23T07:04:50;99802.41;;;17.93;68.81
17311;BME280;8773;43.300;0.394;2023-05-23T07:07:18;99803.81;;;17.89;68.23
17311;BME280;8773;43.300;0.394;2023-05-23T07:09:45;99795.94;;;17.94;68.58
17311;BME280;8773;43.300;0.394;2023-05-23T07:12:13;99801.75;;;17.91;68.52
17311;BME280;8773;43.300;0.394;2023-05-23T07:14:40;99789.97;;;18.12;68.00
17311;BME280;8773;43.300;0.394;2023-05-23T07:17:08;99795.19;;;18.20;67.55
17311;BME280;8773;43.300;0.394;2023-05-23T07:19:36;99797.91;;;18.26;67.47
17311;BME280;8773;43.300;0.394;2023-05-23T07:22:05;99797.94;;;18.46;67.28
17311;BME280;8773;43.300;0.394;2023-05-23T07:24:32;99798.34;;;18.30;66.91
17311;BME280;8773;43.300;0.394;2023-05-23T07:27:00;99804.59;;;18.30;67.02
17311;BME280;8773;43.300;0.394;2023-05-23T07:29:27;99797.56;;;18.49;66.90
17311;BME280;8773;43.300;0.394;2023-05-23T07:31:55;99799.44;;;18.49;66.39
17311;BME280;8773;43.300;0.394;2023-05-23T07:34:22;99799.88;;;18.59;66.11
17311;BME280;8773;43.300;0.394;2023-05-23T07:36:52;99786.38;;;18.72;65.93
17311;BME280;8773;43.300;0.394;2023-05-23T07:39:21;99799.69;;;18.80;65.20
17311;BME280;8773;43.300;0.394;2023-05-23T07:41:48;99797.00;;;18.87;64.96
17311;BME280;8773;43.300;0.394;2023-05-23T07:44:18;99798.66;;;18.81;64.91
17311;BME280;8773;43.300;0.394;2023-05-23T07:46:48;99803.66;;;18.84;65.13
17311;BME280;8773;43.300;0.394;2023-05-23T07:49:16;99792.38;;;18.94;65.00
17311;BME280;8773;43.300;0.394;2023-05-23T07:51:43;99798.84;;;18.86;64.74
17311;BME280;8773;43.300;0.394;2023-05-23T07:54:11;99799.91;;;18.85;64.62
17311;BME280;8773;43.300;0.394;2023-05-23T07:56:43;99806.31;;;18.91;64.38
17311;BME280;8773;43.300;0.394;2023-05-23T07:59:10;99817.78;;;18.99;64.47
17311;BME280;8773;43.300;0.394;2023-05-23T08:01:37;99810.69;;;18.98;64.33
17311;BME280;8773;43.300;0.394;2023-05-23T08:04:05;99810.50;;;19.07;64.36
17311;BME280;8773;43.300;0.394;2023-05-23T08:06:32;99815.06;;;19.06;64.09
17311;BME280;8773;43.300;0.394;2023-05-23T08:09:00;99826.94;;;18.98;63.83
17311;BME280;8773;43.300;0.394;2023-05-23T08:11:27;99830.47;;;18.92;63.63
17311;BME280;8773;43.300;0.394;2023-05-23T08:13:56;99833.59;;;18.76;64.31
17311;BME280;8773;43.300;0.394;2023-05-23T08:16:26;99841.91;;;18.94;63.95
17311;BME280;8773;43.300;0.394;2023-05-23T08:18:53;99837.97;;;18.77;63.64
17311;BME280;8773;43.300;0.394;2023-05-23T08:21:22;99841.09;;;18.87;64.02
17311;BME280;8773;43.300;0.394;2023-05-23T08:23:49;99831.94;;;18.88;63.56
17311;BME280;8773;43.300;0.394;2023-05-23T08:26:17;99826.31;;;18.96;63.89
17311;BME280;8773;43.300;0.394;2023-05-23T08:28:45;99829.00;;;19.03;63.67
17311;BME280;8773;43.300;0.394;2023-05-23T08:31:14;99825.69;;;19.14;63.36
17311;BME280;8773;43.300;0.394;2023-05-23T08:33:41;99822.16;;;19.14;63.64
17311;BME280;8773;43.300;0.394;2023-05-23T08:36:09;99819.84;;;18.91;64.10
17311;BME280;8773;43.300;0.394;2023-05-23T08:38:36;99820.47;;;18.93;64.49
17311;BME280;8773;43.300;0.394;2023-05-23T08:41:04;99814.84;;;19.27;63.05
17311;BME280;8773;43.300;0.394;2023-05-23T08:43:39;99822.56;;;19.37;62.39
17311;BME280;8773;43.300;0.394;2023-05-23T08:46:06;99819.19;;;19.55;62.34
17311;BME280;8773;43.300;0.394;2023-05-23T08:48:37;99819.81;;;19.63;61.79
17311;BME280;8773;43.300;0.394;2023-05-23T08:51:06;99821.19;;;19.79;61.27
17311;BME280;8773;43.300;0.394;2023-05-23T08:53:36;99805.28;;;19.96;61.07
17311;BME280;8773;43.300;0.394;2023-05-23T08:56:05;99801.06;;;20.07;60.52
17311;BME280;8773;43.300;0.394;2023-05-23T08:58:34;99796.19;;;20.28;60.35
17311;BME280;8773;43.300;0.394;2023-05-23T09:01:02;99796.47;;;20.52;59.14
17311;BME280;8773;43.300;0.394;2023-05-23T09:03:30;99795.81;;;20.56;58.57
17311;BME280;8773;43.300;0.394;2023-05-23T09:05:59;99788.28;;;20.83;58.33
17311;BME280;8773;43.300;0.394;2023-05-23T09:08:26;99798.22;;;20.96;57.12
17311;BME280;8773;43.300;0.394;2023-05-23T09:10:54;99802.41;;;21.17;57.20
17311;BME280;8773;43.300;0.394;2023-05-23T09:13:21;99799.53;;;20.62;57.44
17311;BME280;8773;43.300;0.394;2023-05-23T09:15:56;99799.84;;;20.72;57.19
17311;BME280;8773;43.300;0.394;2023-05-23T09:18:24;99794.31;;;21.10;57.32
17311;BME280;8773;43.300;0.394;2023-05-23T09:20:51;99797.34;;;21.45;55.55
17311;BME280;8773;43.300;0.394;2023-05-23T09:23:20;99800.13;;;21.57;54.75
17311;BME280;8773;43.300;0.394;2023-05-23T09:25:48;99799.72;;;21.53;54.83
17311;BME280;8773;43.300;0.394;2023-05-23T09:28:16;99793.50;;;21.10;55.81
17311;BME280;8773;43.300;0.394;2023-05-23T09:30:43;99803.97;;;21.06;56.52
17311;BME280;8773;43.300;0.394;2023-05-23T09:33:12;99804.63;;;20.77;57.86
17311;BME280;8773;43.300;0.394;2023-05-23T09:35:43;99808.03;;;20.65;58.49
17311;BME280;8773;43.300;0.394;2023-05-23T09:38:10;99812.31;;;20.55;58.53
17311;BME280;8773;43.300;0.394;2023-05-23T09:40:44;99814.81;;;20.18;59.55
17311;BME280;8773;43.300;0.394;2023-05-23T09:43:11;99811.53;;;20.03;60.33
17311;BME280;8773;43.300;0.394;2023-05-23T09:45:43;99814.66;;;20.00;59.99
17311;BME280;8773;43.300;0.394;2023-05-23T09:48:12;99807.72;;;20.11;59.93
17311;BME280;8773;43.300;0.394;2023-05-23T09:50:40;99808.72;;;20.23;59.12
17311;BME280;8773;43.300;0.394;2023-05-23T09:53:08;99809.19;;;20.51;58.51
17311;BME280;8773;43.300;0.394;2023-05-23T09:55:36;99813.97;;;20.56;57.83
17311;BME280;8773;43.300;0.394;2023-05-23T09:58:05;99809.22;;;20.76;57.66
17311;BME280;8773;43.300;0.394;2023-05-23T10:00:33;99804.53;;;21.15;56.43
17311;BME280;8773;43.300;0.394;2023-05-23T10:03:09;99800.19;;;21.32;55.71
17311;BME280;8773;43.300;0.394;2023-05-23T10:05:39;99795.34;;;21.52;55.72
17311;BME280;8773;43.300;0.394;2023-05-23T10:08:09;99793.28;;;21.91;53.94
17311;BME280;8773;43.300;0.394;2023-05-23T10:14:00;99797.72;;;22.34;52.53
17311;BME280;8773;43.300;0.394;2023-05-23T10:16:36;99794.09;;;22.40;51.96
17311;BME280;8773;43.300;0.394;2023-05-23T10:19:06;99800.44;;;23.17;51.19
17311;BME280;8773;43.300;0.394;2023-05-23T10:21:41;99788.56;;;23.23;50.03
17311;BME280;8773;43.300;0.394;2023-05-23T10:24:13;99785.97;;;23.16;50.08
17311;BME280;8773;43.300;0.394;2023-05-23T10:26:40;99784.75;;;23.01;50.02
17311;BME280;8773;43.300;0.394;2023-05-23T10:29:11;99792.91;;;22.77;51.43
17311;BME280;8773;43.300;0.394;2023-05-23T10:31:42;99782.97;;;22.94;51.13
17311;BME280;8773;43.300;0.394;2023-05-23T10:34:14;99786.63;;;23.00;50.89
17311;BME280;8773;43.300;0.394;2023-05-23T10:36:52;99782.09;;;22.82;50.84
17311;BME280;8773;43.300;0.394;2023-05-23T10:39:32;99786.06;;;22.45;52.11
17311;BME280;8773;43.300;0.394;2023-05-23T10:42:09;99786.19;;;22.20;52.34
17311;BME280;8773;43.300;0.394;2023-05-23T10:44:39;99781.97;;;22.24;53.21
17311;BME280;8773;43.300;0.394;2023-05-23T10:47:07;99777.00;;;22.62;51.21
17311;BME280;8773;43.300;0.394;2023-05-23T10:49:41;99772.41;;;22.75;51.05
17311;BME280;8773;43.300;0.394;2023-05-23T10:52:10;99781.88;;;22.72;51.12
17311;BME280;8773;43.300;0.394;2023-05-23T10:54:42;99775.03;;;23.05;50.33
17311;BME280;8773;43.300;0.394;2023-05-23T10:57:11;99772.06;;;22.83;50.72
17311;BME280;8773;43.300;0.394;2023-05-23T10:59:40;99777.75;;;23.05;50.28
17311;BME280;8773;43.300;0.394;2023-05-23T11:02:11;99779.09;;;23.14;49.38
17311;BME280;8773;43.300;0.394;2023-05-23T11:04:43;99769.03;;;23.14;50.09
17311;BME280;8773;43.300;0.394;2023-05-23T11:07:28;99768.75;;;23.04;50.63
17311;BME280;8773;43.300;0.394;2023-05-23T11:10:13;99770.59;;;22.57;51.08
17311;BME280;8773;43.300;0.394;2023-05-23T11:13:05;99760.97;;;23.08;50.40
17311;BME280;8773;43.300;0.394;2023-05-23T11:15:42;99760.34;;;23.41;49.31
17311;BME280;8773;43.300;0.394;2023-05-23T11:18:33;99753.13;;;23.35;48.94
17311;BME280;8773;43.300;0.394;2023-05-23T11:21:16;99766.53;;;23.36;49.85
17311;BME280;8773;43.300;0.394;2023-05-23T11:24:02;99759.16;;;23.48;49.99
17311;BME280;8773;43.300;0.394;2023-05-23T11:26:54;99763.66;;;23.54;49.56
17311;BME280;8773;43.300;0.394;2023-05-23T11:30:02;99765.34;;;23.32;50.00
17311;BME280;8773;43.300;0.394;2023-05-23T11:32:54;99764.88;;;23.23;50.28
17311;BME280;8773;43.300;0.394;2023-05-23T11:35:22;99764.97;;;23.05;49.81
17311;BME280;8773;43.300;0.394;2023-05-23T11:37:49;99759.50;;;22.93;50.04
17311;BME280;8773;43.300;0.394;2023-05-23T11:40:37;99766.50;;;22.89;50.84
17311;BME280;8773;43.300;0.394;2023-05-23T11:43:07;99764.47;;;22.61;51.62
17311;BME280;8773;43.300;0.394;2023-05-23T11:46:10;99759.50;;;22.82;50.39
17311;BME280;8773;43.300;0.394;2023-05-23T11:48:59;99760.16;;;23.19;49.83
17311;BME280;8773;43.300;0.394;2023-05-23T11:51:26;99765.09;;;23.45;49.72
17311;BME280;8773;43.300;0.394;2023-05-23T11:53:59;99750.81;;;23.67;47.77
17311;BME280;8773;43.300;0.394;2023-05-23T11:56:27;99753.06;;;23.81;47.45
17311;BME280;8773;43.300;0.394;2023-05-23T11:58:56;99759.44;;;23.12;48.13
17311;BME280;8773;43.300;0.394;2023-05-23T12:01:28;99761.06;;;23.01;49.71
17311;BME280;8773;43.300;0.394;2023-05-23T12:03:55;99759.28;;;23.42;49.29
17311;BME280;8773;43.300;0.394;2023-05-23T12:06:24;99763.31;;;23.27;48.65
17311;BME280;8773;43.300;0.394;2023-05-23T12:08:51;99750.88;;;22.96;49.03
17311;BME280;8773;43.300;0.394;2023-05-23T12:11:19;99744.00;;;23.29;48.66
17311;BME280;8773;43.300;0.394;2023-05-23T12:13:46;99733.97;;;23.70;47.49
17311;BME280;8773;43.300;0.394;2023-05-23T12:16:14;99732.66;;;23.84;47.46
17311;BME280;8773;43.300;0.394;2023-05-23T12:18:42;99722.78;;;24.40;46.72
17311;BME280;8773;43.300;0.394;2023-05-23T12:21:10;99714.50;;;25.02;45.85
17311;BME280;8773;43.300;0.394;2023-05-23T12:23:40;99706.41;;;25.07;44.81
17311;BME280;8773;43.300;0.394;2023-05-23T12:26:08;99705.47;;;25.18;44.62
17311;BME280;8773;43.300;0.394;2023-05-23T12:28:36;99703.25;;;24.98;45.38
17311;BME280;8773;43.300;0.394;2023-05-23T12:31:12;99702.97;;;24.78;46.20
17311;BME280;8773;43.300;0.394;2023-05-23T12:33:40;99703.69;;;24.40;45.49
17311;BME280;8773;43.300;0.394;2023-05-23T12:36:08;99699.75;;;24.02;46.75
17311;BME280;8773;43.300;0.394;2023-05-23T12:38:36;99705.97;;;23.86;46.81
17311;BME280;8773;43.300;0.394;2023-05-23T12:41:09;99708.66;;;23.57;46.13
17311;BME280;8773;43.300;0.394;2023-05-23T12:43:48;99711.00;;;23.14;47.44
17311;BME280;8773;43.300;0.394;2023-05-23T12:46:36;99701.94;;;23.48;47.48
17311;BME280;8773;43.300;0.394;2023-05-23T12:49:06;99706.50;;;23.08;48.29
17311;BME280;8773;43.300;0.394;2023-05-23T12:51:34;99700.00;;;23.20;48.32
17311;BME280;8773;43.300;0.394;2023-05-23T12:54:01;99691.28;;;23.47;47.10
17311;BME280;8773;43.300;0.394;2023-05-23T12:56:30;99693.31;;;23.28;47.64
17311;BME280;8773;43.300;0.394;2023-05-23T12:58:58;99691.31;;;23.23;47.96
17311;BME280;8773;43.300;0.394;2023-05-23T13:01:25;99690.75;;;23.61;46.74
17311;BME280;8773;43.300;0.394;2023-05-23T13:03:53;99681.91;;;23.54;46.97
17311;BME280;8773;43.300;0.394;2023-05-23T13:06:20;99675.53;;;23.77;46.73
17311;BME280;8773;43.300;0.394;2023-05-23T13:08:48;99678.59;;;24.09;45.94
17311;BME280;8773;43.300;0.394;2023-05-23T13:11:16;99674.16;;;24.37;44.06
17311;BME280;8773;43.300;0.394;2023-05-23T13:13:45;99668.84;;;24.80;43.45
17311;BME280;8773;43.300;0.394;2023-05-23T13:16:12;99668.00;;;25.35;43.21
17311;BME280;8773;43.300;0.394;2023-05-23T13:18:40;99662.88;;;25.44;42.69
17311;BME280;8773;43.300;0.394;2023-05-23T13:21:07;99661.56;;;24.86;43.92
17311;BME280;8773;43.300;0.394;2023-05-23T13:23:35;99658.34;;;24.72;44.17
17311;BME280;8773;43.300;0.394;2023-05-23T13:26:03;99653.97;;;24.38;45.08